EGKA METAR and TAF | Updated Today

EGKA METAR

Shoreham Airport

Observation time: 13 min. ago

EGKA 070750Z 17013KT 9999 SCT030 09/05 Q1005

Need help? Read our tutorial on how to read METARs or read the parsed version below.

Shoreham Airport (EGKA) METAR

  • Weather conditions on Tue, 07 Dec 2021 07:50:00 +0000 (13 min. ago):
  • Present conditions: Dry
  • Clouds: Scattered at 914 meters
  • Visibility: Greater than 10 km
  • Wind: 170 degrees at 13 knots
  • Temperature: 9 celsius
  • Dew point: 5 celsius
  • Pressure: 1005 millibars
  • Remarks: None


Useful to know...

EGKA TAF

Shoreham Airport

TAF EGKA 061659Z 0618/0620 28014KT 9999 FEW015 TEMPO 0618/0620 28015G25KT PROB30 TEMPO 0618/0620 28025G35KT 4000 +SHRA BKN009
Observation time: 15:04 hr. ago
Need help? Read our tutorial on how to read TAFs or read the parsed version below.

Parsed version of TAF for Shoreham Airport (EGKA)

  • From 06 December at 18:00 UTC, to day 06 of the month at 20:00 UTC
  • Clouds: A few at 457 meters
  • Visibility: Greater than 10 km
  • Wind: 280 degrees at 14
  • Expected to arise temporarily, from 06 December at 18:00 UTC, to day 06 of the month at 20:00 UTC
  • Wind: 280 degrees at 15
  • Expected to arise temporarily, from 06 December at 18:00 UTC, to day 06 of the month at 20:00 UTC
    Probability of 30%
  • Clouds: Broken sky at 274 meters
  • Visibility: 4000 meters
  • Wind: 280 degrees at 25
  • Other: Strong showers of rain